ルレオ の空港の天気 - METARとTAF

Lulea / Kallax ( ESPA / LLA ) - スウェーデン ルレオ
飛行場実況気象(Metar)
観測時間01/18 10:20 CET (01/18 09:20 UTC)
風向・風速北北東 4m/s
視程2000m
天気現象
全天を覆う雲 鉛直視程 460m
気温-11℃
湿度85%
気圧1003hPa
METARESPA 180920Z 03008KT 2000 SN VV015 M11/M13 Q1003
過去の天気等 Google飛行場航空写真 Wunderground天気予報

過去48時間のMETAR

飛行場予報(TAF)
発表時間: 1/18 09:30 CET (1/18 08:30 UTC)
予報対象時間: 18日10時 CET ~ 18日19時 CET
風向・風速北東 3m/s
視程1,000m
天気現象
全天を覆う雲 鉛直視程 300m
18日10時 CET ~ 18日19時 CET に一時的に
視程5,000m
天気現象弱い雪
全天の8割程度の雲 雲底高度 150m
TAF AMD ESPA 180830Z 1809/1818 04005KT 1000 SN VV010
TEMPO 1809/1818 5000 -SN BKN005 RMK MIL